sensor_id;sensor_type;location;lat;lon;timestamp;pressure;altitude;pressure_sealevel;temperature;humidity
14120;BME280;7138;49.246;9.100;2023-04-05T00:01:01;99356.03;;;3.86;67.89
14120;BME280;7138;49.246;9.100;2023-04-05T00:03:27;99354.31;;;3.85;67.95
14120;BME280;7138;49.246;9.100;2023-04-05T00:05:53;99349.19;;;3.85;68.74
14120;BME280;7138;49.246;9.100;2023-04-05T00:08:21;99348.25;;;3.83;68.64
14120;BME280;7138;49.246;9.100;2023-04-05T00:10:51;99341.41;;;3.82;68.32
14120;BME280;7138;49.246;9.100;2023-04-05T00:13:17;99344.75;;;3.81;67.99
14120;BME280;7138;49.246;9.100;2023-04-05T00:15:43;99338.78;;;3.80;68.61
14120;BME280;7138;49.246;9.100;2023-04-05T00:18:09;99339.66;;;3.81;68.50
14120;BME280;7138;49.246;9.100;2023-04-05T00:20:46;99336.06;;;3.76;68.74
14120;BME280;7138;49.246;9.100;2023-04-05T00:23:12;99333.50;;;3.76;68.82
14120;BME280;7138;49.246;9.100;2023-04-05T00:25:40;99331.72;;;3.73;68.16
14120;BME280;7138;49.246;9.100;2023-04-05T00:28:06;99334.19;;;3.72;68.79
14120;BME280;7138;49.246;9.100;2023-04-05T00:30:32;99335.09;;;3.72;68.84
14120;BME280;7138;49.246;9.100;2023-04-05T00:32:58;99326.59;;;3.73;68.79
14120;BME280;7138;49.246;9.100;2023-04-05T00:35:26;99325.66;;;3.71;68.89
14120;BME280;7138;49.246;9.100;2023-04-05T00:37:52;99330.66;;;3.68;69.35
14120;BME280;7138;49.246;9.100;2023-04-05T00:40:18;99323.66;;;3.63;69.15
14120;BME280;7138;49.246;9.100;2023-04-05T00:42:45;99323.53;;;3.60;69.50
14120;BME280;7138;49.246;9.100;2023-04-05T00:45:13;99324.22;;;3.56;69.63
14120;BME280;7138;49.246;9.100;2023-04-05T00:47:40;99319.06;;;3.54;69.68
14120;BME280;7138;49.246;9.100;2023-04-05T00:50:09;99317.31;;;3.53;69.19
14120;BME280;7138;49.246;9.100;2023-04-05T00:52:35;99311.22;;;3.50;69.72
14120;BME280;7138;49.246;9.100;2023-04-05T00:55:07;99309.53;;;3.50;69.66
14120;BME280;7138;49.246;9.100;2023-04-05T00:57:34;99305.19;;;3.48;69.55
14120;BME280;7138;49.246;9.100;2023-04-05T01:00:07;99302.47;;;3.43;69.55
14120;BME280;7138;49.246;9.100;2023-04-05T01:02:40;99302.41;;;3.42;69.47
14120;BME280;7138;49.246;9.100;2023-04-05T01:05:20;99304.97;;;3.42;69.10
14120;BME280;7138;49.246;9.100;2023-04-05T01:07:55;99303.16;;;3.39;69.46
14120;BME280;7138;49.246;9.100;2023-04-05T01:10:30;99301.41;;;3.38;69.91
14120;BME280;7138;49.246;9.100;2023-04-05T01:13:00;99289.38;;;3.34;69.58
14120;BME280;7138;49.246;9.100;2023-04-05T01:15:27;99291.03;;;3.34;69.29
14120;BME280;7138;49.246;9.100;2023-04-05T01:17:54;99289.38;;;3.34;69.03
14120;BME280;7138;49.246;9.100;2023-04-05T01:20:22;99284.97;;;3.31;69.04
14120;BME280;7138;49.246;9.100;2023-04-05T01:23:10;99288.50;;;3.34;70.14
14120;BME280;7138;49.246;9.100;2023-04-05T01:29:53;99277.94;;;3.24;70.83
14120;BME280;7138;49.246;9.100;2023-04-05T01:32:49;99284.53;;;3.19;70.55
14120;BME280;7138;49.246;9.100;2023-04-05T01:35:28;99285.13;;;3.12;70.72
14120;BME280;7138;49.246;9.100;2023-04-05T01:38:01;99285.59;;;3.02;70.57
14120;BME280;7138;49.246;9.100;2023-04-05T01:40:29;99293.25;;;3.02;69.97
14120;BME280;7138;49.246;9.100;2023-04-05T01:42:55;99288.91;;;3.00;70.95
14120;BME280;7138;49.246;9.100;2023-04-05T01:45:23;99280.44;;;3.01;69.80
14120;BME280;7138;49.246;9.100;2023-04-05T01:47:49;99282.13;;;3.00;70.62
14120;BME280;7138;49.246;9.100;2023-04-05T01:50:15;99279.56;;;3.00;69.88
14120;BME280;7138;49.246;9.100;2023-04-05T01:52:41;99279.38;;;2.96;70.62
14120;BME280;7138;49.246;9.100;2023-04-05T01:55:07;99277.44;;;2.90;71.01
14120;BME280;7138;49.246;9.100;2023-04-05T01:57:33;99277.28;;;2.86;71.27
14120;BME280;7138;49.246;9.100;2023-04-05T01:59:59;99280.41;;;2.79;71.49
14120;BME280;7138;49.246;9.100;2023-04-05T02:02:27;99284.47;;;2.73;71.49
14120;BME280;7138;49.246;9.100;2023-04-05T02:04:53;99277.28;;;2.65;70.74
14120;BME280;7138;49.246;9.100;2023-04-05T02:07:19;99277.06;;;2.59;70.99
14120;BME280;7138;49.246;9.100;2023-04-05T02:09:45;99254.22;;;2.41;71.31
14120;BME280;7138;49.246;9.100;2023-04-05T02:12:10;99271.47;;;2.47;72.31
14120;BME280;7138;49.246;9.100;2023-04-05T02:14:37;99273.09;;;2.45;72.29
14120;BME280;7138;49.246;9.100;2023-04-05T02:17:02;99268.88;;;2.45;71.43
14120;BME280;7138;49.246;9.100;2023-04-05T02:19:30;99260.25;;;2.43;72.05
14120;BME280;7138;49.246;9.100;2023-04-05T02:22:02;99267.13;;;2.44;71.91
14120;BME280;7138;49.246;9.100;2023-04-05T02:24:27;99266.19;;;2.42;72.55
14120;BME280;7138;49.246;9.100;2023-04-05T02:26:53;99267.78;;;2.40;72.17
14120;BME280;7138;49.246;9.100;2023-04-05T02:29:19;99256.53;;;2.35;72.27
14120;BME280;7138;49.246;9.100;2023-04-05T02:31:45;99259.03;;;2.34;71.61
14120;BME280;7138;49.246;9.100;2023-04-05T02:34:11;99259.03;;;2.34;71.91
14120;BME280;7138;49.246;9.100;2023-04-05T02:36:38;99257.16;;;2.30;71.66
14120;BME280;7138;49.246;9.100;2023-04-05T02:39:06;99258.66;;;2.25;72.38
14120;BME280;7138;49.246;9.100;2023-04-05T02:41:32;99250.06;;;2.22;72.56
14120;BME280;7138;49.246;9.100;2023-04-05T02:43:58;99251.81;;;2.24;71.87
14120;BME280;7138;49.246;9.100;2023-04-05T02:46:24;99253.31;;;2.18;72.12
14120;BME280;7138;49.246;9.100;2023-04-05T02:48:50;99254.03;;;2.16;73.18
14120;BME280;7138;49.246;9.100;2023-04-05T02:51:17;99249.69;;;2.13;73.21
14120;BME280;7138;49.246;9.100;2023-04-05T02:53:44;99259.00;;;2.13;72.24
14120;BME280;7138;49.246;9.100;2023-04-05T02:56:10;99254.88;;;2.15;73.21
14120;BME280;7138;49.246;9.100;2023-04-05T02:58:39;99247.00;;;2.10;72.17
14120;BME280;7138;49.246;9.100;2023-04-05T03:01:05;99253.13;;;2.14;72.25
14120;BME280;7138;49.246;9.100;2023-04-05T03:03:32;99249.56;;;2.10;73.14
14120;BME280;7138;49.246;9.100;2023-04-05T03:06:04;99252.13;;;2.10;72.29
14120;BME280;7138;49.246;9.100;2023-04-05T03:08:35;99251.81;;;2.03;73.22
14120;BME280;7138;49.246;9.100;2023-04-05T03:11:04;99249.31;;;2.04;71.92
14120;BME280;7138;49.246;9.100;2023-04-05T03:13:31;99249.31;;;2.04;72.62
14120;BME280;7138;49.246;9.100;2023-04-05T03:15:57;99246.88;;;2.07;72.46
14120;BME280;7138;49.246;9.100;2023-04-05T03:18:22;99240.88;;;2.05;72.55
14120;BME280;7138;49.246;9.100;2023-04-05T03:20:50;99234.84;;;2.03;72.52
14120;BME280;7138;49.246;9.100;2023-04-05T03:23:21;99235.63;;;2.02;72.53
14120;BME280;7138;49.246;9.100;2023-04-05T03:25:53;99234.75;;;2.02;72.18
14120;BME280;7138;49.246;9.100;2023-04-05T03:28:22;99231.16;;;1.97;72.22
14120;BME280;7138;49.246;9.100;2023-04-05T03:30:48;99236.13;;;1.94;72.84
14120;BME280;7138;49.246;9.100;2023-04-05T03:33:16;99241.03;;;1.89;73.31
14120;BME280;7138;49.246;9.100;2023-04-05T03:35:42;99235.88;;;1.88;73.15
14120;BME280;7138;49.246;9.100;2023-04-05T03:38:08;99242.44;;;1.83;74.67
14120;BME280;7138;49.246;9.100;2023-04-05T03:40:35;99243.19;;;1.80;74.48
14120;BME280;7138;49.246;9.100;2023-04-05T03:43:00;99234.03;;;1.64;75.26
14120;BME280;7138;49.246;9.100;2023-04-05T03:45:28;99240.06;;;1.67;75.13
14120;BME280;7138;49.246;9.100;2023-04-05T03:47:57;99240.19;;;1.70;75.34
14120;BME280;7138;49.246;9.100;2023-04-05T03:50:24;99237.03;;;1.75;74.44
14120;BME280;7138;49.246;9.100;2023-04-05T03:52:51;99235.38;;;1.76;74.73
14120;BME280;7138;49.246;9.100;2023-04-05T03:55:17;99237.84;;;1.74;74.79
14120;BME280;7138;49.246;9.100;2023-04-05T03:57:43;99230.19;;;1.74;74.27
14120;BME280;7138;49.246;9.100;2023-04-05T04:00:11;99239.59;;;1.75;74.41
14120;BME280;7138;49.246;9.100;2023-04-05T04:02:42;99227.63;;;1.74;73.22
14120;BME280;7138;49.246;9.100;2023-04-05T04:05:08;99229.41;;;1.75;73.94
14120;BME280;7138;49.246;9.100;2023-04-05T04:07:34;99225.03;;;1.73;73.99
14120;BME280;7138;49.246;9.100;2023-04-05T04:10:00;99226.63;;;1.71;73.79
14120;BME280;7138;49.246;9.100;2023-04-05T04:12:26;99225.66;;;1.67;74.28
14120;BME280;7138;49.246;9.100;2023-04-05T04:14:52;99223.50;;;1.57;75.45
14120;BME280;7138;49.246;9.100;2023-04-05T04:17:26;99228.34;;;1.51;75.10
14120;BME280;7138;49.246;9.100;2023-04-05T04:19:53;99214.41;;;1.43;75.47
14120;BME280;7138;49.246;9.100;2023-04-05T04:22:19;99230.28;;;1.56;74.82
14120;BME280;7138;49.246;9.100;2023-04-05T04:24:45;99232.91;;;1.58;74.62
14120;BME280;7138;49.246;9.100;2023-04-05T04:27:14;99225.47;;;1.43;76.42
14120;BME280;7138;49.246;9.100;2023-04-05T04:29:41;99240.19;;;1.31;75.85
14120;BME280;7138;49.246;9.100;2023-04-05T04:32:11;99237.34;;;1.24;76.48
14120;BME280;7138;49.246;9.100;2023-04-05T04:34:37;99236.22;;;1.19;76.51
14120;BME280;7138;49.246;9.100;2023-04-05T04:37:13;99235.56;;;1.23;76.61
14120;BME280;7138;49.246;9.100;2023-04-05T04:39:43;99231.38;;;1.23;76.40
14120;BME280;7138;49.246;9.100;2023-04-05T04:42:10;99238.13;;;1.23;76.60
14120;BME280;7138;49.246;9.100;2023-04-05T04:44:36;99238.25;;;1.26;75.78
14120;BME280;7138;49.246;9.100;2023-04-05T04:47:02;99242.69;;;1.30;76.38
14120;BME280;7138;49.246;9.100;2023-04-05T04:49:29;99245.25;;;1.30;75.58
14120;BME280;7138;49.246;9.100;2023-04-05T04:51:54;99242.88;;;1.34;75.62
14120;BME280;7138;49.246;9.100;2023-04-05T04:54:25;99244.50;;;1.32;76.16
14120;BME280;7138;49.246;9.100;2023-04-05T04:56:52;99238.63;;;1.33;76.34
14120;BME280;7138;49.246;9.100;2023-04-05T04:59:18;99238.63;;;1.33;76.11
14120;BME280;7138;49.246;9.100;2023-04-05T05:01:44;99241.06;;;1.32;76.65
14120;BME280;7138;49.246;9.100;2023-04-05T05:04:10;99244.59;;;1.34;76.30
14120;BME280;7138;49.246;9.100;2023-04-05T05:06:36;99241.16;;;1.33;76.54
14120;BME280;7138;49.246;9.100;2023-04-05T05:09:03;99241.44;;;1.39;75.66
14120;BME280;7138;49.246;9.100;2023-04-05T05:11:31;99236.53;;;1.44;75.68
14120;BME280;7138;49.246;9.100;2023-04-05T05:13:57;99238.28;;;1.45;75.69
14120;BME280;7138;49.246;9.100;2023-04-05T05:16:23;99246.22;;;1.52;74.93
14120;BME280;7138;49.246;9.100;2023-04-05T05:18:50;99246.50;;;1.58;75.69
14120;BME280;7138;49.246;9.100;2023-04-05T05:21:16;99241.63;;;1.63;74.90
14120;BME280;7138;49.246;9.100;2023-04-05T05:23:42;99238.53;;;1.70;75.02
14120;BME280;7138;49.246;9.100;2023-04-05T05:26:08;99235.41;;;1.77;74.84
14120;BME280;7138;49.246;9.100;2023-04-05T05:28:35;99228.91;;;1.84;74.49
14120;BME280;7138;49.246;9.100;2023-04-05T05:31:02;99234.25;;;1.90;75.01
14120;BME280;7138;49.246;9.100;2023-04-05T05:33:28;99237.28;;;2.00;73.94
14120;BME280;7138;49.246;9.100;2023-04-05T05:35:54;99222.00;;;2.22;73.93
14120;BME280;7138;49.246;9.100;2023-04-05T05:38:20;99229.28;;;2.55;74.62
14120;BME280;7138;49.246;9.100;2023-04-05T05:40:46;99214.06;;;3.02;73.51
14120;BME280;7138;49.246;9.100;2023-04-05T05:43:12;99216.16;;;3.60;73.26
14120;BME280;7138;49.246;9.100;2023-04-05T05:45:39;99218.44;;;4.26;71.54
14120;BME280;7138;49.246;9.100;2023-04-05T05:48:05;99208.63;;;4.95;70.66
14120;BME280;7138;49.246;9.100;2023-04-05T05:50:31;99211.41;;;5.62;69.39
14120;BME280;7138;49.246;9.100;2023-04-05T05:52:57;99213.84;;;6.23;67.37
14120;BME280;7138;49.246;9.100;2023-04-05T05:55:23;99213.56;;;6.83;66.61
14120;BME280;7138;49.246;9.100;2023-04-05T05:57:49;99216.44;;;7.35;65.63
14120;BME280;7138;49.246;9.100;2023-04-05T06:00:18;99213.22;;;7.90;64.27
14120;BME280;7138;49.246;9.100;2023-04-05T06:02:46;99215.00;;;8.45;62.86
14120;BME280;7138;49.246;9.100;2023-04-05T06:05:12;99218.31;;;8.94;62.11
14120;BME280;7138;49.246;9.100;2023-04-05T06:07:38;99219.00;;;9.42;61.14
14120;BME280;7138;49.246;9.100;2023-04-05T06:10:06;99221.06;;;9.72;60.32
14120;BME280;7138;49.246;9.100;2023-04-05T06:12:32;99222.09;;;9.89;59.11
14120;BME280;7138;49.246;9.100;2023-04-05T06:14:59;99228.28;;;10.06;58.95
14120;BME280;7138;49.246;9.100;2023-04-05T06:17:25;99225.94;;;10.26;58.69
14120;BME280;7138;49.246;9.100;2023-04-05T06:19:52;99226.97;;;10.45;58.15
14120;BME280;7138;49.246;9.100;2023-04-05T06:22:18;99222.66;;;10.42;57.96
14120;BME280;7138;49.246;9.100;2023-04-05T06:24:44;99231.13;;;10.26;58.03
14120;BME280;7138;49.246;9.100;2023-04-05T06:27:10;99231.81;;;10.13;58.17
14120;BME280;7138;49.246;9.100;2023-04-05T06:29:36;99240.28;;;9.97;57.62
14120;BME280;7138;49.246;9.100;2023-04-05T06:32:02;99238.44;;;9.88;58.25
14120;BME280;7138;49.246;9.100;2023-04-05T06:34:27;99245.13;;;9.71;58.24
14120;BME280;7138;49.246;9.100;2023-04-05T06:36:55;99246.72;;;9.57;58.77
14120;BME280;7138;49.246;9.100;2023-04-05T06:39:21;99240.38;;;9.32;58.00
14120;BME280;7138;49.246;9.100;2023-04-05T06:41:47;99247.34;;;8.79;57.63
14120;BME280;7138;49.246;9.100;2023-04-05T06:44:12;99247.78;;;8.51;59.52
14120;BME280;7138;49.246;9.100;2023-04-05T06:46:38;99248.72;;;8.08;59.37
14120;BME280;7138;49.246;9.100;2023-04-05T06:49:04;99251.66;;;7.83;59.41
14120;BME280;7138;49.246;9.100;2023-04-05T06:51:30;99251.19;;;7.60;60.69
14120;BME280;7138;49.246;9.100;2023-04-05T06:53:57;99248.19;;;7.37;61.28
14120;BME280;7138;49.246;9.100;2023-04-05T06:56:23;99250.56;;;7.28;61.53
14120;BME280;7138;49.246;9.100;2023-04-05T06:58:49;99241.91;;;7.23;62.74
14120;BME280;7138;49.246;9.100;2023-04-05T07:01:15;99241.03;;;7.23;63.07
14120;BME280;7138;49.246;9.100;2023-04-05T07:03:42;99251.31;;;7.23;62.33
14120;BME280;7138;49.246;9.100;2023-04-05T07:06:07;99245.34;;;7.25;62.79
14120;BME280;7138;49.246;9.100;2023-04-05T07:08:34;99245.41;;;7.28;62.06
14120;BME280;7138;49.246;9.100;2023-04-05T07:11:01;99241.91;;;7.25;62.10
14120;BME280;7138;49.246;9.100;2023-04-05T07:13:27;99243.59;;;7.23;61.81
14120;BME280;7138;49.246;9.100;2023-04-05T07:15:59;99245.19;;;7.18;61.73
14120;BME280;7138;49.246;9.100;2023-04-05T07:18:26;99235.84;;;7.21;61.58
14120;BME280;7138;49.246;9.100;2023-04-05T07:20:56;99235.09;;;7.27;63.46
14120;BME280;7138;49.246;9.100;2023-04-05T07:23:24;99225.78;;;7.32;63.38
14120;BME280;7138;49.246;9.100;2023-04-05T07:25:51;99226.91;;;7.44;63.18
14120;BME280;7138;49.246;9.100;2023-04-05T07:28:18;99224.47;;;7.52;62.45
14120;BME280;7138;49.246;9.100;2023-04-05T07:30:44;99226.28;;;7.57;62.82
14120;BME280;7138;49.246;9.100;2023-04-05T07:33:10;99224.00;;;7.71;62.38
14120;BME280;7138;49.246;9.100;2023-04-05T07:35:36;99224.19;;;7.82;64.43
14120;BME280;7138;49.246;9.100;2023-04-05T07:38:01;99227.78;;;7.91;63.09
14120;BME280;7138;49.246;9.100;2023-04-05T07:40:27;99227.94;;;7.99;62.58
14120;BME280;7138;49.246;9.100;2023-04-05T07:42:53;99223.84;;;8.08;62.38
14120;BME280;7138;49.246;9.100;2023-04-05T07:45:21;99232.50;;;8.13;61.88
14120;BME280;7138;49.246;9.100;2023-04-05T07:47:46;99237.72;;;8.18;61.98
14120;BME280;7138;49.246;9.100;2023-04-05T07:50:12;99232.66;;;8.22;61.85
14120;BME280;7138;49.246;9.100;2023-04-05T07:52:39;99234.50;;;8.28;62.36
14120;BME280;7138;49.246;9.100;2023-04-05T07:55:07;99241.41;;;8.31;61.84
14120;BME280;7138;49.246;9.100;2023-04-05T07:57:32;99237.38;;;8.45;62.38
14120;BME280;7138;49.246;9.100;2023-04-05T07:59:58;99243.56;;;8.56;61.06
14120;BME280;7138;49.246;9.100;2023-04-05T08:02:26;99236.69;;;8.58;62.68
14120;BME280;7138;49.246;9.100;2023-04-05T08:04:52;99233.47;;;8.72;61.51
14120;BME280;7138;49.246;9.100;2023-04-05T08:07:17;99234.22;;;8.62;60.93
14120;BME280;7138;49.246;9.100;2023-04-05T08:09:43;99243.56;;;8.56;59.68
14120;BME280;7138;49.246;9.100;2023-04-05T08:12:09;99223.63;;;8.44;61.29
14120;BME280;7138;49.246;9.100;2023-04-05T08:14:36;99234.34;;;8.71;61.04
14120;BME280;7138;49.246;9.100;2023-04-05T08:17:02;99234.41;;;8.74;60.57
14120;BME280;7138;49.246;9.100;2023-04-05T08:19:29;99230.16;;;8.79;59.59
14120;BME280;7138;49.246;9.100;2023-04-05T08:21:55;99229.47;;;8.90;61.59
14120;BME280;7138;49.246;9.100;2023-04-05T08:24:21;99233.88;;;9.00;60.24
14120;BME280;7138;49.246;9.100;2023-04-05T08:26:47;99220.34;;;9.14;60.34
14120;BME280;7138;49.246;9.100;2023-04-05T08:29:13;99224.78;;;9.23;60.44
14120;BME280;7138;49.246;9.100;2023-04-05T08:31:39;99225.72;;;9.31;60.77
14120;BME280;7138;49.246;9.100;2023-04-05T08:34:05;99231.00;;;9.40;61.04
14120;BME280;7138;49.246;9.100;2023-04-05T08:36:34;99223.44;;;9.55;60.47
14120;BME280;7138;49.246;9.100;2023-04-05T08:39:00;99233.09;;;9.73;61.77
14120;BME280;7138;49.246;9.100;2023-04-05T08:41:33;99230.56;;;9.74;60.73
14120;BME280;7138;49.246;9.100;2023-04-05T08:44:01;99228.22;;;10.00;59.98
14120;BME280;7138;49.246;9.100;2023-04-05T08:46:30;99228.34;;;10.12;60.03
14120;BME280;7138;49.246;9.100;2023-04-05T08:48:56;99225.84;;;10.18;58.64
14120;BME280;7138;49.246;9.100;2023-04-05T08:51:24;99229.47;;;10.37;59.44
14120;BME280;7138;49.246;9.100;2023-04-05T08:53:52;99236.47;;;10.47;57.64
14120;BME280;7138;49.246;9.100;2023-04-05T08:56:25;99228.63;;;10.36;58.04
14120;BME280;7138;49.246;9.100;2023-04-05T08:59:00;99229.56;;;10.46;57.63
14120;BME280;7138;49.246;9.100;2023-04-05T09:01:30;99237.28;;;10.41;57.42
14120;BME280;7138;49.246;9.100;2023-04-05T09:03:59;99223.59;;;10.53;57.27
14120;BME280;7138;49.246;9.100;2023-04-05T09:06:26;99224.53;;;10.67;57.85
14120;BME280;7138;49.246;9.100;2023-04-05T09:08:56;99225.50;;;10.80;56.71
14120;BME280;7138;49.246;9.100;2023-04-05T09:11:23;99212.53;;;10.74;56.33
14120;BME280;7138;49.246;9.100;2023-04-05T09:13:50;99218.66;;;10.85;56.78
14120;BME280;7138;49.246;9.100;2023-04-05T09:16:16;99223.88;;;10.91;57.01
14120;BME280;7138;49.246;9.100;2023-04-05T09:18:43;99223.00;;;10.90;56.91
14120;BME280;7138;49.246;9.100;2023-04-05T09:21:09;99223.06;;;11.04;58.55
14120;BME280;7138;49.246;9.100;2023-04-05T09:23:36;99219.69;;;11.19;57.84
14120;BME280;7138;49.246;9.100;2023-04-05T09:26:16;99214.56;;;11.25;56.06
14120;BME280;7138;49.246;9.100;2023-04-05T09:28:42;99218.88;;;11.26;55.54
14120;BME280;7138;49.246;9.100;2023-04-05T09:31:08;99216.31;;;11.32;56.34
14120;BME280;7138;49.246;9.100;2023-04-05T09:33:34;99217.28;;;11.55;56.41
14120;BME280;7138;49.246;9.100;2023-04-05T09:36:01;99209.59;;;11.72;55.79
14120;BME280;7138;49.246;9.100;2023-04-05T09:38:42;99197.53;;;11.83;54.45
14120;BME280;7138;49.246;9.100;2023-04-05T09:41:09;99204.50;;;11.97;54.66
14120;BME280;7138;49.246;9.100;2023-04-05T09:43:38;99199.34;;;12.16;54.79
14120;BME280;7138;49.246;9.100;2023-04-05T09:46:04;99213.16;;;12.24;53.81
14120;BME280;7138;49.246;9.100;2023-04-05T09:48:45;99203.66;;;12.20;53.34
14120;BME280;7138;49.246;9.100;2023-04-05T09:51:13;99193.28;;;12.30;54.42
14120;BME280;7138;49.246;9.100;2023-04-05T09:53:56;99195.03;;;12.39;53.78
14120;BME280;7138;49.246;9.100;2023-04-05T09:56:25;99201.06;;;12.39;55.48
14120;BME280;7138;49.246;9.100;2023-04-05T09:58:51;99195.00;;;12.48;54.41
14120;BME280;7138;49.246;9.100;2023-04-05T10:01:18;99193.28;;;12.70;54.87
14120;BME280;7138;49.246;9.100;2023-04-05T10:03:48;99200.19;;;12.69;51.28
14120;BME280;7138;49.246;9.100;2023-04-05T10:06:14;99194.97;;;12.74;52.33
14120;BME280;7138;49.246;9.100;2023-04-05T10:08:41;99204.53;;;12.73;51.24
14120;BME280;7138;49.246;9.100;2023-04-05T10:11:07;99204.50;;;12.82;53.09
14120;BME280;7138;49.246;9.100;2023-04-05T10:13:38;99194.94;;;13.04;53.37
14120;BME280;7138;49.246;9.100;2023-04-05T10:16:09;99198.38;;;13.20;53.04
14120;BME280;7138;49.246;9.100;2023-04-05T10:18:48;99257.25;;;13.28;51.67
14120;BME280;7138;49.246;9.100;2023-04-05T10:21:20;99196.59;;;13.37;51.46
14120;BME280;7138;49.246;9.100;2023-04-05T10:23:50;99187.00;;;13.51;50.47
14120;BME280;7138;49.246;9.100;2023-04-05T10:26:29;99193.00;;;13.62;52.89
14120;BME280;7138;49.246;9.100;2023-04-05T10:29:11;99185.97;;;13.81;49.57
14120;BME280;7138;49.246;9.100;2023-04-05T10:31:50;99179.97;;;13.73;49.68
14120;BME280;7138;49.246;9.100;2023-04-05T10:34:29;99147.09;;;13.67;51.26
14120;BME280;7138;49.246;9.100;2023-04-05T10:37:00;99188.50;;;13.97;49.89
14120;BME280;7138;49.246;9.100;2023-04-05T10:39:29;99183.28;;;13.97;49.04
14120;BME280;7138;49.246;9.100;2023-04-05T10:42:01;99188.66;;;13.67;50.22
14120;BME280;7138;49.246;9.100;2023-04-05T10:44:36;99189.50;;;13.72;50.40
14120;BME280;7138;49.246;9.100;2023-04-05T10:47:05;99172.16;;;13.76;49.44
14120;BME280;7138;49.246;9.100;2023-04-05T10:49:38;99173.00;;;13.79;48.57
14120;BME280;7138;49.246;9.100;2023-04-05T10:52:05;99174.59;;;13.98;51.73
14120;BME280;7138;49.246;9.100;2023-04-05T10:54:33;99172.84;;;14.02;49.04
14120;BME280;7138;49.246;9.100;2023-04-05T10:57:03;99177.22;;;13.92;47.86
14120;BME280;7138;49.246;9.100;2023-04-05T10:59:33;99177.25;;;13.91;47.45
14120;BME280;7138;49.246;9.100;2023-04-05T11:02:01;99180.78;;;13.81;48.29
14120;BME280;7138;49.246;9.100;2023-04-05T11:04:27;99173.84;;;13.81;48.65
14120;BME280;7138;49.246;9.100;2023-04-05T11:07:13;99168.56;;;13.95;50.50
14120;BME280;7138;49.246;9.100;2023-04-05T11:09:54;99173.81;;;13.87;48.17
14120;BME280;7138;49.246;9.100;2023-04-05T11:13:07;99170.38;;;13.81;48.84
14120;BME280;7138;49.246;9.100;2023-04-05T11:15:36;99166.97;;;13.76;48.38
14120;BME280;7138;49.246;9.100;2023-04-05T11:18:20;99159.97;;;13.84;48.35
14120;BME280;7138;49.246;9.100;2023-04-05T11:20:49;99165.13;;;13.90;50.77
14120;BME280;7138;49.246;9.100;2023-04-05T11:23:23;99165.94;;;13.99;51.70
14120;BME280;7138;49.246;9.100;2023-04-05T11:25:52;99150.31;;;14.04;50.04
14120;BME280;7138;49.246;9.100;2023-04-05T11:28:33;99165.19;;;13.78;48.50
14120;BME280;7138;49.246;9.100;2023-04-05T11:31:14;99170.41;;;13.75;49.03
14120;BME280;7138;49.246;9.100;2023-04-05T11:33:55;99159.13;;;13.82;49.65
14120;BME280;7138;49.246;9.100;2023-04-05T11:36:33;99150.31;;;14.04;50.44
14120;BME280;7138;49.246;9.100;2023-04-05T11:39:25;99152.78;;;14.19;49.85
14120;BME280;7138;49.246;9.100;2023-04-05T11:42:01;99153.53;;;14.38;50.87
14120;BME280;7138;49.246;9.100;2023-04-05T11:44:28;99144.84;;;14.40;47.93
14120;BME280;7138;49.246;9.100;2023-04-05T11:46:57;99137.81;;;14.50;48.47
14120;BME280;7138;49.246;9.100;2023-04-05T11:49:24;99138.47;;;14.68;49.72
14120;BME280;7138;49.246;9.100;2023-04-05T11:51:51;99139.53;;;14.51;46.84
14120;BME280;7138;49.246;9.100;2023-04-05T11:54:35;99129.03;;;14.60;48.13
14120;BME280;7138;49.246;9.100;2023-04-05T11:57:01;99128.09;;;14.65;50.21
14120;BME280;7138;49.246;9.100;2023-04-05T11:59:30;99122.75;;;14.79;49.22
14120;BME280;7138;49.246;9.100;2023-04-05T12:02:00;99114.78;;;14.94;49.76
14120;BME280;7138;49.246;9.100;2023-04-05T12:04:27;99112.00;;;15.09;48.90
14120;BME280;7138;49.246;9.100;2023-04-05T12:07:16;99096.28;;;15.15;49.04
14120;BME280;7138;49.246;9.100;2023-04-05T12:10:04;99113.53;;;15.25;47.16
14120;BME280;7138;49.246;9.100;2023-04-05T12:12:34;99115.13;;;15.37;49.48
14120;BME280;7138;49.246;9.100;2023-04-05T12:15:01;99108.81;;;15.55;49.21
14120;BME280;7138;49.246;9.100;2023-04-05T12:17:44;99100.09;;;15.59;46.32
14120;BME280;7138;49.246;9.100;2023-04-05T12:20:12;99103.44;;;15.67;47.05
14120;BME280;7138;49.246;9.100;2023-04-05T12:22:41;99102.63;;;15.63;47.13
14120;BME280;7138;49.246;9.100;2023-04-05T12:25:09;99096.56;;;15.61;47.67
14120;BME280;7138;49.246;9.100;2023-04-05T12:27:35;99091.31;;;15.63;45.29
14120;BME280;7138;49.246;9.100;2023-04-05T12:30:11;99098.22;;;15.67;44.13
14120;BME280;7138;49.246;9.100;2023-04-05T12:32:52;99103.72;;;15.46;43.54
14120;BME280;7138;49.246;9.100;2023-04-05T12:35:20;99099.41;;;15.43;44.92
14120;BME280;7138;49.246;9.100;2023-04-05T12:37:47;99103.75;;;15.43;44.91
14120;BME280;7138;49.246;9.100;2023-04-05T12:40:20;99103.16;;;15.22;45.02
14120;BME280;7138;49.246;9.100;2023-04-05T12:42:46;99098.88;;;15.17;45.66
14120;BME280;7138;49.246;9.100;2023-04-05T12:45:13;99090.25;;;15.13;44.59
14120;BME280;7138;49.246;9.100;2023-04-05T12:47:56;99090.47;;;14.95;42.95
14120;BME280;7138;49.246;9.100;2023-04-05T12:50:26;99089.72;;;14.84;44.67
14120;BME280;7138;49.246;9.100;2023-04-05T12:52:55;99088.06;;;14.80;45.89
14120;BME280;7138;49.246;9.100;2023-04-05T12:55:21;99080.97;;;14.91;45.19
14120;BME280;7138;49.246;9.100;2023-04-05T12:57:52;99084.69;;;14.70;45.36
14120;BME280;7138;49.246;9.100;2023-04-05T13:00:21;99083.94;;;14.58;44.48
14120;BME280;7138;49.246;9.100;2023-04-05T13:02:53;99075.25;;;14.62;45.95
14120;BME280;7138;49.246;9.100;2023-04-05T13:05:21;99063.72;;;14.81;48.35
14120;BME280;7138;49.246;9.100;2023-04-05T13:07:47;99066.09;;;14.99;47.08
14120;BME280;7138;49.246;9.100;2023-04-05T13:10:13;99072.19;;;15.00;45.97
14120;BME280;7138;49.246;9.100;2023-04-05T13:12:40;99068.59;;;15.08;45.05
14120;BME280;7138;49.246;9.100;2023-04-05T13:15:07;99066.03;;;15.05;43.94
14120;BME280;7138;49.246;9.100;2023-04-05T13:17:33;99061.66;;;15.09;44.92
14120;BME280;7138;49.246;9.100;2023-04-05T13:20:00;99057.25;;;15.11;45.43
14120;BME280;7138;49.246;9.100;2023-04-05T13:22:26;99059.03;;;15.09;44.26
14120;BME280;7138;49.246;9.100;2023-04-05T13:24:52;99055.50;;;15.14;44.17
14120;BME280;7138;49.246;9.100;2023-04-05T13:27:18;99052.91;;;15.11;44.07
14120;BME280;7138;49.246;9.100;2023-04-05T13:29:46;99059.81;;;15.14;43.51